Time;durP1;ratioP1;P1;durP2;ratioP2;P2;SDS_P1;SDS_P2;PMS_P1;PMS_P2;Temp;Humidity;BMP_temperature;BMP_pressure;BME280_temperature;BME280_humidity;BME280_pressure;Samples;Min_cycle;Max_cycle;Signal;HPM_P1;HPM_P2
2023/07/15 00:01:02;;;;;;;2.90;2.50;;;20.00;99.90;;;;;;5082239;28;20190;-50
2023/07/15 00:03:29;;;;;;;3.23;2.70;;;20.00;99.90;;;;;;5060380;28;20209;-52
2023/07/15 00:05:57;;;;;;;5.50;2.80;;;20.00;99.90;;;;;;5072233;28;20967;-53
2023/07/15 00:08:24;;;;;;;3.40;2.60;;;20.00;99.90;;;;;;5080763;28;20671;-50
2023/07/15 00:10:51;;;;;;;3.87;2.73;;;20.00;99.90;;;;;;5082121;28;20182;-51
2023/07/15 00:13:19;;;;;;;3.90;2.63;;;20.10;99.90;;;;;;5081934;28;20597;-54
2023/07/15 00:15:50;;;;;;;3.73;2.50;;;20.10;99.90;;;;;;5075530;28;20217;-50
2023/07/15 00:18:17;;;;;;;2.70;2.50;;;20.10;99.90;;;;;;5058794;28;20197;-54
2023/07/15 00:20:45;;;;;;;4.27;2.60;;;20.10;99.90;;;;;;5080190;28;20890;-48
2023/07/15 00:23:18;;;;;;;2.93;2.60;;;20.10;99.90;;;;;;5077598;28;20668;-51
2023/07/15 00:25:45;;;;;;;2.77;2.47;;;20.10;99.90;;;;;;5079513;28;20217;-49
2023/07/15 00:28:12;;;;;;;4.07;2.67;;;20.20;99.90;;;;;;5083080;28;20190;-50
2023/07/15 00:30:40;;;;;;;3.53;2.90;;;20.10;99.90;;;;;;5065315;28;20204;-49
2023/07/15 00:33:13;;;;;;;4.43;2.60;;;20.20;99.90;;;;;;5075716;28;20274;-50
2023/07/15 00:35:40;;;;;;;4.70;2.87;;;20.20;99.90;;;;;;5057720;28;20338;-47
2023/07/15 00:38:07;;;;;;;3.67;2.85;;;20.20;99.90;;;;;;5074972;28;20266;-54
2023/07/15 00:40:39;;;;;;;3.17;2.85;;;20.20;99.90;;;;;;5077839;28;20190;-51
2023/07/15 00:43:44;;;;;;;4.10;2.67;;;20.20;99.90;;;;;;5077684;28;20185;-50
2023/07/15 00:46:35;;;;;;;3.63;2.90;;;20.10;99.90;;;;;;5073195;28;20249;-52
2023/07/15 00:49:07;;;;;;;3.15;2.85;;;20.10;99.90;;;;;;5063651;28;20301;-51
2023/07/15 00:51:38;;;;;;;4.80;2.73;;;20.00;99.90;;;;;;5079121;28;20193;-53
2023/07/15 00:54:05;;;;;;;3.30;3.00;;;20.00;99.90;;;;;;5072011;28;20252;-49
2023/07/15 00:56:34;;;;;;;3.23;3.00;;;20.00;99.90;;;;;;5079463;28;20221;-52
2023/07/15 00:59:04;;;;;;;3.10;2.80;;;20.00;99.90;;;;;;5081629;28;20201;-47
2023/07/15 01:01:34;;;;;;;5.43;2.93;;;19.90;99.90;;;;;;5070946;28;20675;-51
2023/07/15 01:04:00;;;;;;;2.90;2.67;;;19.90;99.90;;;;;;5082450;28;20196;-54
2023/07/15 01:06:28;;;;;;;6.27;3.00;;;19.90;99.90;;;;;;5053743;28;20222;-50
2023/07/15 01:08:54;;;;;;;3.70;2.90;;;19.90;99.90;;;;;;5078303;28;20186;-48
2023/07/15 01:11:21;;;;;;;3.60;2.83;;;19.90;99.90;;;;;;5076675;28;20279;-52
2023/07/15 01:13:49;;;;;;;3.73;2.87;;;19.80;99.90;;;;;;5079523;28;20182;-52
2023/07/15 01:16:16;;;;;;;3.60;2.80;;;19.80;99.90;;;;;;5072557;28;20236;-52
2023/07/15 01:18:44;;;;;;;3.30;3.00;;;19.80;99.90;;;;;;5073144;28;20197;-49
2023/07/15 01:21:13;;;;;;;3.53;2.73;;;19.80;99.90;;;;;;5061468;28;20234;-49
2023/07/15 01:23:41;;;;;;;3.97;3.30;;;19.80;99.90;;;;;;5077729;28;20243;-47
2023/07/15 01:26:08;;;;;;;5.03;2.93;;;19.80;99.90;;;;;;5081943;28;20202;-53
2023/07/15 01:28:37;;;;;;;4.40;2.80;;;19.70;99.90;;;;;;5074900;28;20774;-54
2023/07/15 01:31:05;;;;;;;4.10;2.97;;;19.70;99.90;;;;;;5068227;28;20226;-48
2023/07/15 01:33:32;;;;;;;3.93;2.73;;;19.60;99.90;;;;;;5070156;28;20205;-53
2023/07/15 01:36:00;;;;;;;5.17;2.90;;;19.60;99.90;;;;;;5063227;28;20693;-54
2023/07/15 01:38:26;;;;;;;4.30;2.87;;;19.50;99.90;;;;;;5078212;28;20202;-55
2023/07/15 01:40:55;;;;;;;6.30;2.80;;;19.50;99.90;;;;;;5080120;28;20263;-52
2023/07/15 01:43:21;;;;;;;4.13;3.00;;;19.50;99.90;;;;;;5081096;28;20214;-54
2023/07/15 01:45:48;;;;;;;4.13;2.93;;;19.50;99.90;;;;;;5082938;28;20215;-53
2023/07/15 01:48:15;;;;;;;4.33;3.23;;;19.40;99.90;;;;;;5077936;28;20290;-52
2023/07/15 01:50:43;;;;;;;3.30;3.00;;;19.40;99.90;;;;;;5065170;28;24641;-52
2023/07/15 01:53:10;;;;;;;3.80;2.80;;;19.40;99.90;;;;;;5079326;28;20251;-54
2023/07/15 01:55:37;;;;;;;3.37;2.80;;;19.30;99.90;;;;;;5080024;28;20847;-54
2023/07/15 01:58:05;;;;;;;3.10;2.73;;;19.30;99.90;;;;;;5084489;28;20240;-52
2023/07/15 02:00:32;;;;;;;3.77;2.77;;;19.20;99.90;;;;;;5080529;28;20182;-50
2023/07/15 02:02:59;;;;;;;3.40;3.10;;;19.20;99.90;;;;;;5078796;28;20247;-51
2023/07/15 02:05:26;;;;;;;3.00;2.70;;;19.10;99.90;;;;;;5075666;28;20739;-54
2023/07/15 02:07:53;;;;;;;5.27;2.90;;;19.00;99.90;;;;;;5065464;28;20224;-50
2023/07/15 02:10:22;;;;;;;4.43;2.90;;;19.00;99.90;;;;;;5081016;28;20194;-54
2023/07/15 02:12:49;;;;;;;2.93;2.70;;;19.00;99.90;;;;;;5079303;28;20178;-53
2023/07/15 02:15:17;;;;;;;4.07;2.80;;;18.90;99.90;;;;;;5084931;28;20228;-53
2023/07/15 02:17:45;;;;;;;4.33;2.77;;;18.90;99.90;;;;;;5075403;28;20190;-49
2023/07/15 02:20:13;;;;;;;3.40;2.93;;;18.90;99.90;;;;;;5078487;28;20209;-49
2023/07/15 02:22:40;;;;;;;2.97;2.57;;;18.90;99.90;;;;;;5061309;28;20206;-50
2023/07/15 02:25:08;;;;;;;3.87;2.63;;;18.90;99.90;;;;;;5082412;28;20209;-52
2023/07/15 02:27:35;;;;;;;4.63;3.27;;;18.90;99.90;;;;;;5081141;28;20202;-51
2023/07/15 02:30:02;;;;;;;3.10;2.70;;;18.90;99.90;;;;;;5077619;28;20186;-51
2023/07/15 02:32:38;;;;;;;2.50;2.30;;;18.90;99.90;;;;;;5076432;28;20224;-51
2023/07/15 02:35:09;;;;;;;3.17;2.57;;;18.90;99.90;;;;;;5077764;28;20221;-52
2023/07/15 02:37:36;;;;;;;3.40;3.17;;;18.80;99.90;;;;;;5079772;28;20846;-49
2023/07/15 02:40:04;;;;;;;3.43;2.87;;;18.80;99.90;;;;;;5062289;28;20210;-52
2023/07/15 02:42:33;;;;;;;5.90;2.80;;;18.80;99.90;;;;;;5071418;28;20265;-54
2023/07/15 02:45:01;;;;;;;3.40;2.53;;;18.70;99.90;;;;;;5084921;28;20619;-55
2023/07/15 02:47:29;;;;;;;2.67;2.47;;;18.70;99.90;;;;;;5080848;28;20664;-55
2023/07/15 02:49:59;;;;;;;4.93;3.10;;;18.70;99.90;;;;;;5076435;28;20629;-51
2023/07/15 02:52:26;;;;;;;3.40;2.80;;;18.60;99.90;;;;;;5077975;28;20275;-54
2023/07/15 02:54:53;;;;;;;4.03;3.00;;;18.60;99.90;;;;;;5061958;28;20214;-49
2023/07/15 02:57:20;;;;;;;3.50;3.03;;;18.50;99.90;;;;;;5081506;28;20210;-55
2023/07/15 02:59:49;;;;;;;3.70;2.73;;;18.50;99.90;;;;;;5081462;28;20178;-47
2023/07/15 03:02:16;;;;;;;3.33;2.73;;;18.50;99.90;;;;;;5084129;28;20190;-53
2023/07/15 03:04:43;;;;;;;5.80;3.10;;;18.50;99.90;;;;;;5076940;28;20202;-56
2023/07/15 03:07:14;;;;;;;3.30;2.77;;;18.50;99.90;;;;;;5074724;28;20214;-53
2023/07/15 03:09:41;;;;;;;3.43;3.00;;;18.50;99.90;;;;;;5059764;28;20211;-53
2023/07/15 03:12:09;;;;;;;3.57;3.03;;;18.40;99.90;;;;;;5084678;28;20186;-55
2023/07/15 03:14:36;;;;;;;3.43;2.77;;;18.40;99.90;;;;;;5078940;28;20189;-49
2023/07/15 03:17:03;;;;;;;3.23;2.93;;;18.40;99.90;;;;;;5077982;28;20263;-52
2023/07/15 03:19:31;;;;;;;4.73;3.13;;;18.30;99.90;;;;;;5079684;28;20613;-53
2023/07/15 03:21:58;;;;;;;3.67;2.90;;;18.30;99.90;;;;;;5070502;28;20225;-50
2023/07/15 03:24:26;;;;;;;2.70;2.37;;;18.30;99.90;;;;;;5070088;28;20217;-55
2023/07/15 03:26:53;;;;;;;3.87;2.50;;;18.30;99.90;;;;;;5076750;28;20290;-50
2023/07/15 03:29:22;;;;;;;4.33;2.77;;;18.30;99.90;;;;;;5072929;28;20265;-53
2023/07/15 03:31:49;;;;;;;3.20;2.90;;;18.30;99.90;;;;;;5079207;28;20190;-48
2023/07/15 03:34:16;;;;;;;3.73;2.93;;;18.20;99.90;;;;;;5083366;28;20194;-53
2023/07/15 03:36:43;;;;;;;3.40;3.10;;;18.20;99.90;;;;;;5064953;28;20309;-53
2023/07/15 03:39:10;;;;;;;4.10;2.97;;;18.20;99.90;;;;;;5072211;28;20909;-52
2023/07/15 03:41:39;;;;;;;3.30;2.50;;;18.20;99.90;;;;;;5058297;28;20213;-49
2023/07/15 03:44:05;;;;;;;3.40;2.63;;;18.20;99.90;;;;;;5079563;28;20186;-52
2023/07/15 03:46:33;;;;;;;3.13;2.83;;;18.20;99.90;;;;;;5069906;28;20269;-51
2023/07/15 03:49:00;;;;;;;3.43;2.80;;;18.20;99.90;;;;;;5081943;28;20210;-52
2023/07/15 03:51:26;;;;;;;4.70;3.20;;;18.20;99.90;;;;;;5078463;28;20715;-51
2023/07/15 03:53:53;;;;;;;3.30;2.80;;;18.20;99.90;;;;;;5070692;28;20198;-53
2023/07/15 03:56:20;;;;;;;3.07;2.77;;;18.20;99.90;;;;;;5062789;28;20214;-54
2023/07/15 03:58:48;;;;;;;2.43;2.23;;;18.20;99.90;;;;;;5080501;28;20189;-50
2023/07/15 04:01:15;;;;;;;3.93;2.80;;;18.30;99.90;;;;;;5074450;28;20271;-54
2023/07/15 04:03:42;;;;;;;3.77;3.07;;;18.30;99.90;;;;;;5077757;28;20201;-50
2023/07/15 04:06:09;;;;;;;4.20;2.83;;;18.30;99.90;;;;;;5080550;28;20571;-53
2023/07/15 04:08:36;;;;;;;5.33;2.80;;;18.30;99.90;;;;;;5065752;28;20355;-50
2023/07/15 04:11:03;;;;;;;3.73;2.77;;;18.30;99.90;;;;;;5083255;28;20257;-52
2023/07/15 04:13:30;;;;;;;2.83;2.53;;;18.30;99.90;;;;;;5060519;28;20551;-53
2023/07/15 04:15:58;;;;;;;4.30;2.77;;;18.30;99.90;;;;;;5079292;28;20299;-55
2023/07/15 04:18:25;;;;;;;4.30;2.60;;;18.30;99.90;;;;;;5078933;28;20208;-53
2023/07/15 04:20:51;;;;;;;4.10;2.70;;;18.30;99.90;;;;;;5082550;28;20194;-53
2023/07/15 04:23:18;;;;;;;3.37;2.60;;;18.30;99.90;;;;;;5073712;28;20198;-54
2023/07/15 04:25:46;;;;;;;3.97;2.80;;;18.30;99.90;;;;;;5075616;28;20309;-50
2023/07/15 04:28:15;;;;;;;4.23;2.83;;;18.30;99.90;;;;;;5058526;28;20209;-54
2023/07/15 04:30:42;;;;;;;4.00;2.50;;;18.30;99.90;;;;;;5079016;28;20192;-54
2023/07/15 04:33:10;;;;;;;2.80;2.50;;;18.30;99.90;;;;;;5083501;28;20235;-53
2023/07/15 04:35:37;;;;;;;4.33;2.60;;;18.30;99.90;;;;;;5078344;28;20291;-48
2023/07/15 04:38:04;;;;;;;3.83;2.90;;;18.30;99.90;;;;;;5074710;28;20196;-50
2023/07/15 04:40:31;;;;;;;3.10;2.70;;;18.40;99.90;;;;;;5065849;28;20571;-55
2023/07/15 04:42:58;;;;;;;3.00;2.60;;;18.40;99.90;;;;;;5062915;28;20782;-50
2023/07/15 04:45:25;;;;;;;4.07;2.53;;;18.40;99.90;;;;;;5080365;28;20246;-56
2023/07/15 04:47:52;;;;;;;3.07;2.60;;;18.40;99.90;;;;;;5080837;28;20207;-55
2023/07/15 04:50:20;;;;;;;3.60;2.70;;;18.40;99.90;;;;;;5082118;28;20221;-54
2023/07/15 04:52:47;;;;;;;3.93;2.90;;;18.40;99.90;;;;;;5068073;28;20229;-52
2023/07/15 04:55:14;;;;;;;2.97;2.60;;;18.50;99.90;;;;;;5075416;28;20229;-55
2023/07/15 04:57:41;;;;;;;2.90;2.70;;;18.50;99.90;;;;;;5075243;28;20184;-55
2023/07/15 05:00:10;;;;;;;2.63;2.43;;;18.50;99.90;;;;;;5061834;28;20194;-48
2023/07/15 05:02:37;;;;;;;4.17;2.60;;;18.50;99.90;;;;;;5079430;28;20186;-51
2023/07/15 05:05:05;;;;;;;5.17;2.80;;;18.60;99.90;;;;;;5060435;28;20308;-50
2023/07/15 05:07:34;;;;;;;2.80;2.50;;;18.70;99.90;;;;;;5082478;28;20684;-49
2023/07/15 05:10:01;;;;;;;3.23;2.73;;;18.80;99.90;;;;;;5067659;28;20272;-52
2023/07/15 05:12:27;;;;;;;4.93;3.00;;;18.80;99.90;;;;;;5072364;28;20193;-54
2023/07/15 05:14:54;;;;;;;3.20;2.63;;;18.90;99.90;;;;;;5063034;28;20229;-55
2023/07/15 05:17:21;;;;;;;3.10;2.80;;;18.90;99.90;;;;;;5081468;28;20217;-50
2023/07/15 05:19:48;;;;;;;3.13;2.47;;;19.00;99.90;;;;;;5077160;28;20205;-54
2023/07/15 05:22:15;;;;;;;2.87;2.53;;;19.00;99.90;;;;;;5080317;28;20204;-53
2023/07/15 05:24:43;;;;;;;3.07;2.60;;;19.10;99.90;;;;;;5080160;28;20225;-50
2023/07/15 05:27:10;;;;;;;3.03;2.60;;;19.20;99.90;;;;;;5073036;28;20190;-49
2023/07/15 05:29:37;;;;;;;3.50;2.70;;;19.20;99.90;;;;;;5077335;28;20215;-50
2023/07/15 05:32:05;;;;;;;3.10;2.40;;;19.30;99.90;;;;;;5059637;28;20876;-52
2023/07/15 05:34:32;;;;;;;6.43;3.10;;;19.40;99.90;;;;;;5080262;28;20664;-52
2023/07/15 05:36:58;;;;;;;4.17;2.63;;;19.40;99.90;;;;;;5072896;28;20684;-54
2023/07/15 05:39:25;;;;;;;4.67;2.83;;;19.40;99.90;;;;;;5073591;28;20209;-52
2023/07/15 05:41:53;;;;;;;3.20;2.90;;;19.50;99.90;;;;;;5077777;28;20232;-54
2023/07/15 05:44:20;;;;;;;4.67;2.63;;;19.50;99.90;;;;;;5083050;28;20259;-50
2023/07/15 05:46:47;;;;;;;4.53;2.63;;;19.60;99.90;;;;;;5066593;28;20255;-53
2023/07/15 05:49:14;;;;;;;3.43;3.13;;;19.70;99.90;;;;;;5067315;28;20246;-52
2023/07/15 05:51:41;;;;;;;3.03;2.60;;;19.80;99.90;;;;;;5074636;28;20206;-52
2023/07/15 05:54:07;;;;;;;4.07;2.30;;;19.80;99.90;;;;;;5067921;28;20276;-53
2023/07/15 05:56:34;;;;;;;4.23;3.10;;;19.90;99.90;;;;;;5083907;28;20222;-54
2023/07/15 05:59:03;;;;;;;4.13;2.97;;;20.00;99.90;;;;;;5073072;28;20198;-53
2023/07/15 06:01:29;;;;;;;5.90;2.80;;;20.00;99.90;;;;;;5059200;28;20259;-54
2023/07/15 06:03:56;;;;;;;2.87;2.53;;;20.10;99.90;;;;;;5062674;28;20191;-54
2023/07/15 06:06:23;;;;;;;3.97;2.67;;;20.30;99.90;;;;;;5074615;28;20700;-51
2023/07/15 06:08:51;;;;;;;2.90;2.60;;;20.30;99.90;;;;;;5077920;28;20675;-53
2023/07/15 06:11:19;;;;;;;3.00;2.53;;;20.40;99.90;;;;;;5077196;28;20283;-50
2023/07/15 06:13:45;;;;;;;3.77;2.60;;;20.50;99.90;;;;;;5080461;28;20221;-53
2023/07/15 06:16:14;;;;;;;5.20;2.53;;;20.50;99.90;;;;;;5050537;28;22231;-55
2023/07/15 06:18:41;;;;;;;2.90;2.50;;;20.60;99.90;;;;;;5079817;28;20190;-52
2023/07/15 06:21:08;;;;;;;4.83;3.07;;;;;;;;;;5072786;28;20288;-52
2023/07/15 06:23:35;;;;;;;3.47;2.90;;;20.80;99.90;;;;;;5069774;28;20258;-51
2023/07/15 06:26:02;;;;;;;3.40;2.30;;;20.90;99.90;;;;;;5071857;28;20710;-54
2023/07/15 06:28:29;;;;;;;3.57;2.40;;;20.90;99.90;;;;;;5074453;28;20239;-53
2023/07/15 06:31:03;;;;;;;3.03;2.60;;;21.00;99.90;;;;;;5072016;28;20209;-56
2023/07/15 06:33:31;;;;;;;2.80;2.50;;;21.00;99.90;;;;;;5060847;28;20209;-50
2023/07/15 06:35:58;;;;;;;2.47;2.27;;;21.10;99.90;;;;;;5072322;28;20233;-54
2023/07/15 06:38:26;;;;;;;3.20;2.30;;;21.20;99.90;;;;;;5077118;28;20281;-51
2023/07/15 06:40:53;;;;;;;3.92;2.60;;;21.20;99.90;;;;;;5065280;28;20637;-52
2023/07/15 06:43:20;;;;;;;2.53;2.33;;;21.30;99.90;;;;;;5070696;28;20212;-49
2023/07/15 06:45:47;;;;;;;3.67;2.85;;;21.30;99.90;;;;;;5072713;28;20310;-49
2023/07/15 06:48:14;;;;;;;4.15;2.65;;;21.40;99.90;;;;;;5058834;28;20298;-51
2023/07/15 06:50:42;;;;;;;4.03;2.70;;;21.40;99.90;;;;;;5067566;28;20202;-54
2023/07/15 06:53:09;;;;;;;3.33;2.30;;;21.50;99.90;;;;;;5071464;28;20290;-52
2023/07/15 06:55:37;;;;;;;5.28;2.55;;;21.50;99.90;;;;;;5072052;28;20306;-50
2023/07/15 06:58:04;;;;;;;2.63;2.17;;;21.60;99.90;;;;;;5071087;28;20183;-52
2023/07/15 07:00:31;;;;;;;4.75;2.90;;;21.60;99.90;;;;;;5083176;28;20656;-48
2023/07/15 07:02:58;;;;;;;2.50;2.30;;;21.70;99.90;;;;;;5051170;28;21000;-55
2023/07/15 07:05:26;;;;;;;3.95;2.60;;;21.80;99.90;;;;;;5074496;28;20275;-52
2023/07/15 07:07:54;;;;;;;7.18;2.63;;;21.80;99.90;;;;;;5071430;28;20820;-54
2023/07/15 07:10:21;;;;;;;3.50;2.90;;;22.00;99.90;;;;;;5083771;28;20262;-51
2023/07/15 07:12:48;;;;;;;3.45;2.70;;;22.10;99.90;;;;;;5065912;28;20271;-53
2023/07/15 07:15:15;;;;;;;3.53;2.42;;;22.10;99.90;;;;;;5075967;28;20213;-55
2023/07/15 07:17:41;;;;;;;2.50;2.30;;;22.30;99.90;;;;;;5074166;28;20672;-54
2023/07/15 07:20:09;;;;;;;2.55;2.35;;;22.30;99.90;;;;;;5056615;28;22732;-47
2023/07/15 07:22:36;;;;;;;4.60;2.72;;;22.50;99.90;;;;;;5072119;28;20263;-49
2023/07/15 07:25:05;;;;;;;2.38;2.17;;;22.50;99.90;;;;;;5075034;28;20226;-49
2023/07/15 07:27:32;;;;;;;4.40;2.65;;;22.60;99.90;;;;;;5069059;28;20726;-52
2023/07/15 07:29:59;;;;;;;5.28;2.50;;;22.70;99.90;;;;;;5068676;28;20370;-48
2023/07/15 07:32:26;;;;;;;6.55;2.75;;;22.80;99.90;;;;;;5077051;28;20198;-50
2023/07/15 07:34:53;;;;;;;4.88;2.25;;;22.90;99.90;;;;;;5057197;28;20703;-51
2023/07/15 07:37:20;;;;;;;4.70;2.75;;;23.00;99.90;;;;;;5069228;28;20201;-54
2023/07/15 07:39:47;;;;;;;3.10;2.10;;;23.20;99.90;;;;;;5075462;28;20881;-47
2023/07/15 07:42:15;;;;;;;3.42;2.30;;;23.20;99.90;;;;;;5078781;28;20191;-50
2023/07/15 07:44:42;;;;;;;2.70;2.50;;;23.30;99.90;;;;;;5079957;28;20245;-46
2023/07/15 07:47:09;;;;;;;7.18;2.85;;;23.50;99.80;;;;;;5081859;28;20202;-54
2023/07/15 07:49:36;;;;;;;3.47;2.38;;;23.60;99.30;;;;;;5056637;28;20213;-49
2023/07/15 07:52:03;;;;;;;3.05;2.85;;;23.70;99.20;;;;;;5065654;28;20201;-49
2023/07/15 07:54:30;;;;;;;2.60;2.40;;;23.80;99.00;;;;;;5067254;28;20206;-51
2023/07/15 07:56:57;;;;;;;5.97;2.47;;;23.90;98.90;;;;;;5070773;28;20282;-48
2023/07/15 07:59:25;;;;;;;2.90;2.67;;;24.00;98.30;;;;;;5067763;28;20198;-49
2023/07/15 08:01:53;;;;;;;2.45;2.22;;;24.10;98.20;;;;;;5074121;28;20182;-52
2023/07/15 08:04:20;;;;;;;2.92;2.65;;;24.10;98.60;;;;;;5057459;28;20527;-53
2023/07/15 08:06:47;;;;;;;2.95;2.28;;;24.30;98.70;;;;;;5067436;28;20193;-47
2023/07/15 08:09:13;;;;;;;3.30;2.70;;;24.40;98.10;;;;;;5072718;28;20556;-53
2023/07/15 08:11:42;;;;;;;2.80;2.17;;;24.50;97.90;;;;;;5067003;28;20307;-52
2023/07/15 08:14:09;;;;;;;5.13;2.60;;;24.60;98.20;;;;;;5069911;28;20196;-52
2023/07/15 08:16:38;;;;;;;2.47;2.33;;;24.70;98.40;;;;;;5074972;28;20271;-52
2023/07/15 08:19:07;;;;;;;3.92;2.28;;;24.70;98.40;;;;;;5069153;28;20206;-51
2023/07/15 08:21:34;;;;;;;2.95;2.70;;;24.80;98.20;;;;;;5060825;28;20628;-53
2023/07/15 08:24:01;;;;;;;3.00;2.22;;;24.80;97.90;;;;;;5077992;28;20208;-53
2023/07/15 08:26:27;;;;;;;3.50;2.67;;;24.90;97.80;;;;;;5059918;28;20237;-54
2023/07/15 08:28:55;;;;;;;5.35;2.30;;;25.00;97.70;;;;;;5069761;28;20294;-45
2023/07/15 08:31:22;;;;;;;3.65;2.40;;;25.10;97.80;;;;;;5077559;28;20274;-55
2023/07/15 08:33:50;;;;;;;2.75;2.30;;;25.10;98.20;;;;;;5073249;28;20987;-48
2023/07/15 08:36:17;;;;;;;2.78;2.42;;;25.30;97.70;;;;;;5062589;28;20232;-49
2023/07/15 08:38:44;;;;;;;2.25;2.00;;;25.30;97.40;;;;;;5070755;28;20250;-50
2023/07/15 08:41:11;;;;;;;3.90;2.15;;;25.50;97.10;;;;;;5075892;28;20226;-48
2023/07/15 08:43:38;;;;;;;5.85;2.70;;;25.60;96.70;;;;;;5072122;28;20205;-51
2023/07/15 08:46:13;;;;;;;3.08;2.15;;;25.70;96.40;;;;;;5083033;28;20213;-52
2023/07/15 08:48:40;;;;;;;4.00;2.58;;;25.90;96.50;;;;;;5072263;28;20227;-52
2023/07/15 08:51:09;;;;;;;2.97;2.22;;;26.00;97.50;;;;;;5058657;28;20274;-49
2023/07/15 08:53:38;;;;;;;2.72;2.05;;;26.00;95.50;;;;;;5080039;28;20201;-54
2023/07/15 08:56:06;;;;;;;3.13;2.30;;;26.20;94.70;;;;;;5077311;28;20233;-50
2023/07/15 08:58:33;;;;;;;3.20;2.00;;;26.30;94.30;;;;;;5075875;28;20209;-51
2023/07/15 09:01:00;;;;;;;2.40;2.20;;;26.20;94.10;;;;;;5081218;28;21002;-51
2023/07/15 09:03:27;;;;;;;6.18;2.35;;;26.30;94.40;;;;;;5075794;28;20274;-52
2023/07/15 09:05:54;;;;;;;4.05;2.40;;;26.50;94.60;;;;;;5073708;28;20213;-47
2023/07/15 09:08:25;;;;;;;3.97;2.13;;;26.50;94.70;;;;;;5062833;28;20225;-50
2023/07/15 09:10:53;;;;;;;3.38;2.22;;;26.60;94.30;;;;;;5076333;28;20435;-47
2023/07/15 09:13:24;;;;;;;2.05;1.90;;;26.70;93.60;;;;;;5075935;28;20709;-53
2023/07/15 09:15:51;;;;;;;2.88;2.30;;;26.80;93.30;;;;;;5071166;28;20267;-49
2023/07/15 09:18:19;;;;;;;2.08;1.90;;;27.00;94.20;;;;;;5083285;28;20214;-48
2023/07/15 09:20:46;;;;;;;2.88;2.25;;;27.10;93.20;;;;;;5072374;28;20294;-47
2023/07/15 09:23:13;;;;;;;2.90;2.35;;;27.10;93.30;;;;;;5063454;28;20297;-45
2023/07/15 09:25:50;;;;;;;3.33;2.13;;;27.20;93.00;;;;;;5075974;28;20241;-47
2023/07/15 09:28:16;;;;;;;2.58;1.88;;;27.30;93.30;;;;;;5074615;28;20292;-52
2023/07/15 09:30:43;;;;;;;3.45;1.83;;;27.40;92.50;;;;;;5070287;28;20222;-49
2023/07/15 09:33:27;;;;;;;3.10;2.00;;;27.40;91.90;;;;;;5081627;28;20213;-53
2023/07/15 09:35:54;;;;;;;3.35;2.30;;;27.50;90.80;;;;;;5074169;28;20222;-49
2023/07/15 09:38:21;;;;;;;2.30;2.10;;;27.60;91.60;;;;;;5054940;28;20202;-53
2023/07/15 09:40:50;;;;;;;2.45;2.20;;;27.70;91.70;;;;;;5077080;28;20795;-51
2023/07/15 09:43:17;;;;;;;2.97;1.83;;;27.70;91.30;;;;;;5074971;28;20664;-46
2023/07/15 09:45:45;;;;;;;3.05;2.22;;;27.70;91.00;;;;;;5069436;28;20501;-50
2023/07/15 09:48:13;;;;;;;3.15;1.95;;;27.80;90.40;;;;;;5081760;28;20186;-47
2023/07/15 09:50:42;;;;;;;1.85;1.75;;;27.90;90.10;;;;;;5059735;28;20218;-49
2023/07/15 09:53:10;;;;;;;1.98;1.77;;;27.90;89.60;;;;;;5083110;28;20209;-51
2023/07/15 09:55:38;;;;;;;3.50;2.30;;;28.00;88.70;;;;;;5060461;28;20320;-52
2023/07/15 09:58:16;;;;;;;5.05;2.05;;;28.20;88.30;;;;;;5078275;28;20202;-45
2023/07/15 10:00:49;;;;;;;1.70;1.60;;;28.20;89.20;;;;;;5075568;28;20981;-48
2023/07/15 10:03:29;;;;;;;4.65;2.45;;;28.30;88.90;;;;;;5081002;28;20194;-48
2023/07/15 10:05:56;;;;;;;2.65;1.88;;;28.30;87.90;;;;;;5075886;28;21498;-49
2023/07/15 10:08:24;;;;;;;2.30;2.10;;;28.40;86.70;;;;;;5079273;28;20761;-50
2023/07/15 10:10:50;;;;;;;2.13;1.80;;;28.40;86.30;;;;;;5058299;28;20225;-45
2023/07/15 10:13:19;;;;;;;2.28;1.85;;;28.50;86.90;;;;;;5081093;28;20217;-49
2023/07/15 10:15:46;;;;;;;2.65;1.98;;;28.50;85.50;;;;;;5066341;28;20222;-46
2023/07/15 10:18:14;;;;;;;5.43;2.78;;;28.60;85.70;;;;;;5090434;28;20246;-47
2023/07/15 10:20:48;;;;;;;2.53;2.00;;;28.60;85.00;;;;;;5076604;27;20198;-47
2023/07/15 10:23:17;;;;;;;3.45;2.70;;;28.70;83.30;;;;;;5078081;28;20206;-48
2023/07/15 10:25:44;;;;;;;3.97;3.22;;;28.80;83.80;;;;;;5057236;28;20310;-50
2023/07/15 10:28:13;;;;;;;1.88;1.77;;;29.00;83.10;;;;;;5083826;28;20224;-49
2023/07/15 10:31:11;;;;;;;3.33;2.35;;;29.10;83.10;;;;;;5059334;28;20214;-45
2023/07/15 10:33:53;;;;;;;6.38;4.05;;;29.20;82.10;;;;;;5074546;28;20700;-52
2023/07/15 10:36:38;;;;;;;2.63;2.30;;;29.30;82.10;;;;;;5078614;28;20209;-51
2023/07/15 10:39:14;;;;;;;2.55;2.35;;;29.40;93.30;;;;;;5072166;28;20194;-50
2023/07/15 10:41:42;;;;;;;2.05;1.90;;;29.40;81.40;;;;;;5061691;28;20725;-46
2023/07/15 10:44:22;;;;;;;2.28;2.00;;;29.50;81.00;;;;;;5075025;28;20275;-50
2023/07/15 10:46:53;;;;;;;2.13;1.85;;;29.60;80.90;;;;;;5079013;28;20185;-50
2023/07/15 10:49:21;;;;;;;2.30;2.10;;;29.80;81.50;;;;;;5079214;28;20482;-49
2023/07/15 10:51:50;;;;;;;1.92;1.83;;;29.90;80.80;;;;;;5081084;28;20627;-54
2023/07/15 10:54:20;;;;;;;1.90;1.63;;;29.90;79.20;;;;;;5071443;28;20198;-46
2023/07/15 10:56:47;;;;;;;2.03;1.55;;;29.90;78.20;;;;;;5062715;28;20206;-53
2023/07/15 10:59:14;;;;;;;1.58;1.48;;;29.90;78.40;;;;;;5076168;28;20182;-49
2023/07/15 11:01:40;;;;;;;1.90;1.80;;;29.80;77.40;;;;;;5081015;28;20193;-55
2023/07/15 11:04:09;;;;;;;2.00;1.70;;;29.70;76.40;;;;;;5075002;28;20190;-49
2023/07/15 11:06:36;;;;;;;2.10;1.63;;;29.70;77.10;;;;;;5068497;28;20672;-53
2023/07/15 11:09:20;;;;;;;1.73;1.63;;;29.70;76.70;;;;;;5065833;28;20251;-47
2023/07/15 11:11:49;;;;;;;1.45;1.35;;;29.70;77.20;;;;;;5050433;28;20875;-50
2023/07/15 11:14:22;;;;;;;2.97;1.52;;;29.60;75.70;;;;;;5076274;28;20198;-53
2023/07/15 11:16:51;;;;;;;1.83;1.73;;;29.70;78.60;;;;;;5074102;28;20271;-47
2023/07/15 11:19:20;;;;;;;3.03;1.70;;;29.80;75.60;;;;;;5082834;28;20186;-48
2023/07/15 11:21:47;;;;;;;1.60;1.50;;;29.90;75.80;;;;;;5075410;28;20247;-51
2023/07/15 11:24:15;;;;;;;1.50;1.40;;;29.80;76.30;;;;;;5071673;28;20282;-52
2023/07/15 11:26:42;;;;;;;1.77;1.67;;;29.80;75.40;;;;;;5051994;28;20230;-55
2023/07/15 11:29:17;;;;;;;7.10;2.00;;;29.90;74.80;;;;;;5082015;28;20186;-46
2023/07/15 11:31:46;;;;;;;1.70;1.52;;;30.00;76.30;;;;;;5073279;28;20198;-50
2023/07/15 11:34:13;;;;;;;2.08;1.60;;;30.00;75.10;;;;;;5081497;28;20273;-51
2023/07/15 11:36:41;;;;;;;2.03;1.58;;;30.10;73.90;;;;;;5068752;28;20221;-55
2023/07/15 11:39:08;;;;;;;1.90;1.48;;;30.10;73.60;;;;;;5070617;28;20727;-48
2023/07/15 11:41:36;;;;;;;3.33;1.63;;;30.20;73.90;;;;;;5076742;28;20240;-55
2023/07/15 11:44:08;;;;;;;1.88;1.77;;;30.30;73.40;;;;;;5062945;28;20230;-48
2023/07/15 11:46:35;;;;;;;1.83;1.70;;;30.40;73.20;;;;;;5069986;28;20245;-54
2023/07/15 11:49:03;;;;;;;2.53;1.70;;;30.40;71.90;;;;;;5062071;28;20686;-51
2023/07/15 11:51:31;;;;;;;1.70;1.60;;;30.50;72.10;;;;;;5073013;28;20241;-49
2023/07/15 11:53:59;;;;;;;2.17;2.05;;;30.60;72.90;;;;;;5071981;28;20210;-52
2023/07/15 11:56:34;;;;;;;3.72;1.88;;;30.60;71.40;;;;;;5074960;28;20217;-47
2023/07/15 11:59:01;;;;;;;2.78;1.70;;;30.40;72.00;;;;;;5052579;28;20267;-51
2023/07/15 12:01:28;;;;;;;2.85;1.70;;;30.30;72.50;;;;;;5068424;28;20190;-52
2023/07/15 12:03:55;;;;;;;3.38;2.03;;;30.10;72.60;;;;;;5075631;28;20203;-52
2023/07/15 12:06:23;;;;;;;2.65;1.50;;;29.90;71.90;;;;;;5079008;28;20206;-45
2023/07/15 12:09:03;;;;;;;3.30;1.92;;;29.90;72.90;;;;;;5074898;28;20182;-48
2023/07/15 12:11:30;;;;;;;1.60;1.50;;;29.80;71.30;;;;;;5069552;28;20229;-52
2023/07/15 12:13:57;;;;;;;2.60;1.73;;;29.60;72.30;;;;;;5056483;28;20289;-50
2023/07/15 12:16:24;;;;;;;2.00;1.45;;;29.50;73.10;;;;;;5074409;28;20233;-48
2023/07/15 12:18:52;;;;;;;4.50;1.90;;;29.50;72.60;;;;;;5075769;28;20209;-53
2023/07/15 12:21:19;;;;;;;1.70;1.60;;;29.60;72.70;;;;;;5079324;28;20261;-45
2023/07/15 12:23:46;;;;;;;3.08;1.60;;;29.70;72.40;;;;;;5076212;28;20213;-50
2023/07/15 12:26:14;;;;;;;3.92;1.60;;;29.70;72.40;;;;;;5068733;28;20237;-51
2023/07/15 12:28:41;;;;;;;2.70;1.83;;;29.70;72.60;;;;;;5058421;28;20191;-48
2023/07/15 12:31:08;;;;;;;1.80;1.50;;;29.80;74.20;;;;;;5075402;28;20291;-48
2023/07/15 12:33:35;;;;;;;2.47;1.75;;;30.00;72.90;;;;;;5071873;28;20281;-48
2023/07/15 12:36:02;;;;;;;1.83;1.73;;;30.00;72.40;;;;;;5078320;28;20316;-54
2023/07/15 12:38:30;;;;;;;2.42;1.67;;;29.90;73.40;;;;;;5075238;28;20198;-51
2023/07/15 12:40:57;;;;;;;5.22;1.95;;;29.70;73.70;;;;;;5079890;28;20182;-53
2023/07/15 12:43:26;;;;;;;4.10;1.80;;;29.60;73.70;;;;;;5078961;28;20186;-47
2023/07/15 12:45:53;;;;;;;5.63;1.42;;;29.50;74.30;;;;;;5056778;28;20308;-52
2023/07/15 12:48:20;;;;;;;2.58;1.40;;;29.30;73.50;;;;;;5070994;28;20214;-50
2023/07/15 12:50:47;;;;;;;3.47;1.50;;;29.20;73.40;;;;;;5073442;28;20275;-51
2023/07/15 12:53:14;;;;;;;2.88;1.30;;;29.10;74.30;;;;;;5074441;28;20182;-51